sensor_id;sensor_type;location;lat;lon;timestamp;P1;durP1;ratioP1;P2;durP2;ratioP2
63714;SDS011;49858;48.956;9.076;2024-02-26T00:01:52;5.05;;;2.83;;
63714;SDS011;49858;48.956;9.076;2024-02-26T00:04:20;4.30;;;2.60;;
63714;SDS011;49858;48.956;9.076;2024-02-26T00:06:48;5.93;;;2.92;;
63714;SDS011;49858;48.956;9.076;2024-02-26T00:09:17;4.93;;;2.80;;
63714;SDS011;49858;48.956;9.076;2024-02-26T00:11:45;5.93;;;3.08;;
63714;SDS011;49858;48.956;9.076;2024-02-26T00:14:15;5.05;;;3.20;;
63714;SDS011;49858;48.956;9.076;2024-02-26T00:16:43;4.20;;;2.60;;
63714;SDS011;49858;48.956;9.076;2024-02-26T00:19:11;4.38;;;3.15;;
63714;SDS011;49858;48.956;9.076;2024-02-26T00:21:40;4.85;;;3.00;;
63714;SDS011;49858;48.956;9.076;2024-02-26T00:24:08;4.90;;;3.10;;
63714;SDS011;49858;48.956;9.076;2024-02-26T00:26:36;3.92;;;2.65;;
63714;SDS011;49858;48.956;9.076;2024-02-26T00:29:04;4.35;;;2.78;;
63714;SDS011;49858;48.956;9.076;2024-02-26T00:31:33;4.60;;;2.50;;
63714;SDS011;49858;48.956;9.076;2024-02-26T00:34:01;3.80;;;2.70;;
63714;SDS011;49858;48.956;9.076;2024-02-26T00:36:29;4.40;;;2.83;;
63714;SDS011;49858;48.956;9.076;2024-02-26T00:38:57;4.60;;;2.50;;
63714;SDS011;49858;48.956;9.076;2024-02-26T00:41:25;3.42;;;2.63;;
63714;SDS011;49858;48.956;9.076;2024-02-26T00:43:53;4.80;;;2.58;;
63714;SDS011;49858;48.956;9.076;2024-02-26T00:46:21;5.43;;;3.10;;
63714;SDS011;49858;48.956;9.076;2024-02-26T00:48:50;4.40;;;2.85;;
63714;SDS011;49858;48.956;9.076;2024-02-26T00:51:18;4.35;;;2.97;;
63714;SDS011;49858;48.956;9.076;2024-02-26T00:53:50;4.53;;;2.88;;
63714;SDS011;49858;48.956;9.076;2024-02-26T00:56:18;8.57;;;2.88;;
63714;SDS011;49858;48.956;9.076;2024-02-26T00:58:46;4.20;;;2.75;;
63714;SDS011;49858;48.956;9.076;2024-02-26T01:01:14;5.97;;;2.80;;
63714;SDS011;49858;48.956;9.076;2024-02-26T01:03:42;3.15;;;2.22;;
63714;SDS011;49858;48.956;9.076;2024-02-26T01:06:11;4.38;;;2.70;;
63714;SDS011;49858;48.956;9.076;2024-02-26T01:08:39;3.38;;;2.63;;
63714;SDS011;49858;48.956;9.076;2024-02-26T01:11:07;5.90;;;2.72;;
63714;SDS011;49858;48.956;9.076;2024-02-26T01:13:35;7.88;;;3.47;;
63714;SDS011;49858;48.956;9.076;2024-02-26T01:16:03;4.32;;;2.40;;
63714;SDS011;49858;48.956;9.076;2024-02-26T01:18:31;5.05;;;2.88;;
63714;SDS011;49858;48.956;9.076;2024-02-26T01:20:59;1.70;;;1.35;;
63714;SDS011;49858;48.956;9.076;2024-02-26T01:23:29;2.90;;;2.33;;
63714;SDS011;49858;48.956;9.076;2024-02-26T01:25:57;5.03;;;2.78;;
63714;SDS011;49858;48.956;9.076;2024-02-26T01:28:25;8.40;;;3.65;;
63714;SDS011;49858;48.956;9.076;2024-02-26T01:30:53;6.68;;;3.58;;
63714;SDS011;49858;48.956;9.076;2024-02-26T01:33:20;4.75;;;3.15;;
63714;SDS011;49858;48.956;9.076;2024-02-26T01:35:49;4.30;;;2.85;;
63714;SDS011;49858;48.956;9.076;2024-02-26T01:38:17;5.65;;;2.95;;
63714;SDS011;49858;48.956;9.076;2024-02-26T01:40:46;9.57;;;4.30;;
63714;SDS011;49858;48.956;9.076;2024-02-26T01:43:14;6.80;;;2.95;;
63714;SDS011;49858;48.956;9.076;2024-02-26T01:45:41;4.05;;;3.03;;
63714;SDS011;49858;48.956;9.076;2024-02-26T01:48:09;4.90;;;3.15;;
63714;SDS011;49858;48.956;9.076;2024-02-26T01:50:37;6.00;;;3.05;;
63714;SDS011;49858;48.956;9.076;2024-02-26T01:53:07;3.58;;;2.83;;
63714;SDS011;49858;48.956;9.076;2024-02-26T01:55:37;4.63;;;2.60;;
63714;SDS011;49858;48.956;9.076;2024-02-26T01:58:07;5.13;;;3.10;;
63714;SDS011;49858;48.956;9.076;2024-02-26T02:00:36;5.75;;;3.90;;
63714;SDS011;49858;48.956;9.076;2024-02-26T02:03:05;3.13;;;2.33;;
63714;SDS011;49858;48.956;9.076;2024-02-26T02:05:33;8.50;;;4.95;;
63714;SDS011;49858;48.956;9.076;2024-02-26T02:08:05;6.97;;;4.50;;
63714;SDS011;49858;48.956;9.076;2024-02-26T02:10:33;8.90;;;5.20;;
63714;SDS011;49858;48.956;9.076;2024-02-26T02:13:02;4.72;;;3.33;;
63714;SDS011;49858;48.956;9.076;2024-02-26T02:15:31;6.57;;;3.35;;
63714;SDS011;49858;48.956;9.076;2024-02-26T02:17:59;4.95;;;3.58;;
63714;SDS011;49858;48.956;9.076;2024-02-26T02:20:32;7.95;;;3.42;;
63714;SDS011;49858;48.956;9.076;2024-02-26T02:23:01;5.30;;;3.30;;
63714;SDS011;49858;48.956;9.076;2024-02-26T02:25:29;2.90;;;2.15;;
63714;SDS011;49858;48.956;9.076;2024-02-26T02:27:57;2.13;;;1.40;;
63714;SDS011;49858;48.956;9.076;2024-02-26T02:30:26;3.67;;;2.70;;
63714;SDS011;49858;48.956;9.076;2024-02-26T02:32:57;5.60;;;3.38;;
63714;SDS011;49858;48.956;9.076;2024-02-26T02:35:25;3.90;;;2.65;;
63714;SDS011;49858;48.956;9.076;2024-02-26T02:37:56;2.30;;;1.88;;
63714;SDS011;49858;48.956;9.076;2024-02-26T02:40:25;2.75;;;2.35;;
63714;SDS011;49858;48.956;9.076;2024-02-26T02:42:52;3.58;;;2.70;;
63714;SDS011;49858;48.956;9.076;2024-02-26T02:45:20;1.77;;;1.35;;
63714;SDS011;49858;48.956;9.076;2024-02-26T02:47:48;3.15;;;2.78;;
63714;SDS011;49858;48.956;9.076;2024-02-26T02:50:16;4.85;;;3.22;;
63714;SDS011;49858;48.956;9.076;2024-02-26T02:52:44;5.90;;;3.33;;
63714;SDS011;49858;48.956;9.076;2024-02-26T02:55:13;5.30;;;2.97;;
63714;SDS011;49858;48.956;9.076;2024-02-26T02:57:41;3.80;;;2.63;;
63714;SDS011;49858;48.956;9.076;2024-02-26T03:00:11;3.85;;;1.77;;
63714;SDS011;49858;48.956;9.076;2024-02-26T03:02:39;6.72;;;2.60;;
63714;SDS011;49858;48.956;9.076;2024-02-26T03:05:07;2.38;;;1.73;;
63714;SDS011;49858;48.956;9.076;2024-02-26T03:07:36;4.80;;;3.25;;
63714;SDS011;49858;48.956;9.076;2024-02-26T03:10:04;4.50;;;3.20;;
63714;SDS011;49858;48.956;9.076;2024-02-26T03:12:34;5.57;;;3.10;;
63714;SDS011;49858;48.956;9.076;2024-02-26T03:15:02;4.15;;;3.13;;
63714;SDS011;49858;48.956;9.076;2024-02-26T03:17:31;5.55;;;3.50;;
63714;SDS011;49858;48.956;9.076;2024-02-26T03:19:59;39.00;;;10.50;;
63714;SDS011;49858;48.956;9.076;2024-02-26T03:22:27;24.83;;;9.30;;
63714;SDS011;49858;48.956;9.076;2024-02-26T03:24:54;7.20;;;3.72;;
63714;SDS011;49858;48.956;9.076;2024-02-26T03:27:22;4.85;;;3.10;;
63714;SDS011;49858;48.956;9.076;2024-02-26T03:29:51;4.78;;;3.55;;
63714;SDS011;49858;48.956;9.076;2024-02-26T03:32:20;7.47;;;3.70;;
63714;SDS011;49858;48.956;9.076;2024-02-26T03:34:48;6.47;;;3.55;;
63714;SDS011;49858;48.956;9.076;2024-02-26T03:37:16;8.73;;;4.30;;
63714;SDS011;49858;48.956;9.076;2024-02-26T03:39:43;6.65;;;4.55;;
63714;SDS011;49858;48.956;9.076;2024-02-26T03:42:12;5.85;;;3.50;;
63714;SDS011;49858;48.956;9.076;2024-02-26T03:44:39;5.28;;;3.28;;
63714;SDS011;49858;48.956;9.076;2024-02-26T03:47:09;6.05;;;4.30;;
63714;SDS011;49858;48.956;9.076;2024-02-26T03:49:37;7.55;;;4.13;;
63714;SDS011;49858;48.956;9.076;2024-02-26T03:52:05;9.38;;;3.60;;
63714;SDS011;49858;48.956;9.076;2024-02-26T03:54:33;2.55;;;1.70;;
63714;SDS011;49858;48.956;9.076;2024-02-26T03:57:00;5.25;;;2.67;;
63714;SDS011;49858;48.956;9.076;2024-02-26T03:59:28;6.15;;;3.20;;
63714;SDS011;49858;48.956;9.076;2024-02-26T04:01:56;5.22;;;3.35;;
63714;SDS011;49858;48.956;9.076;2024-02-26T04:04:25;7.53;;;3.33;;
63714;SDS011;49858;48.956;9.076;2024-02-26T04:06:53;3.85;;;2.83;;
63714;SDS011;49858;48.956;9.076;2024-02-26T04:09:21;4.10;;;2.25;;
63714;SDS011;49858;48.956;9.076;2024-02-26T04:11:49;5.15;;;3.47;;
63714;SDS011;49858;48.956;9.076;2024-02-26T04:14:17;6.22;;;3.85;;
63714;SDS011;49858;48.956;9.076;2024-02-26T04:16:45;4.15;;;2.92;;
63714;SDS011;49858;48.956;9.076;2024-02-26T04:19:17;4.03;;;2.80;;
63714;SDS011;49858;48.956;9.076;2024-02-26T04:21:47;3.63;;;2.65;;
63714;SDS011;49858;48.956;9.076;2024-02-26T04:24:15;5.35;;;2.58;;
63714;SDS011;49858;48.956;9.076;2024-02-26T04:26:43;4.20;;;2.55;;
63714;SDS011;49858;48.956;9.076;2024-02-26T04:29:10;3.65;;;2.38;;
63714;SDS011;49858;48.956;9.076;2024-02-26T04:31:38;5.05;;;3.00;;
63714;SDS011;49858;48.956;9.076;2024-02-26T04:34:06;3.38;;;2.72;;
63714;SDS011;49858;48.956;9.076;2024-02-26T04:36:37;3.72;;;2.67;;
63714;SDS011;49858;48.956;9.076;2024-02-26T04:39:06;5.20;;;3.45;;
63714;SDS011;49858;48.956;9.076;2024-02-26T04:41:34;6.95;;;3.50;;
63714;SDS011;49858;48.956;9.076;2024-02-26T04:44:02;3.95;;;2.58;;
63714;SDS011;49858;48.956;9.076;2024-02-26T04:46:29;5.25;;;2.90;;
63714;SDS011;49858;48.956;9.076;2024-02-26T04:48:57;5.60;;;2.67;;
63714;SDS011;49858;48.956;9.076;2024-02-26T04:51:25;4.05;;;2.65;;
63714;SDS011;49858;48.956;9.076;2024-02-26T04:53:53;3.42;;;2.65;;
63714;SDS011;49858;48.956;9.076;2024-02-26T04:56:22;4.50;;;2.70;;
63714;SDS011;49858;48.956;9.076;2024-02-26T04:58:50;3.42;;;2.58;;
63714;SDS011;49858;48.956;9.076;2024-02-26T05:01:17;4.07;;;2.78;;
63714;SDS011;49858;48.956;9.076;2024-02-26T05:03:46;4.45;;;2.90;;
63714;SDS011;49858;48.956;9.076;2024-02-26T05:06:14;4.05;;;2.65;;
63714;SDS011;49858;48.956;9.076;2024-02-26T05:08:42;4.10;;;2.38;;
63714;SDS011;49858;48.956;9.076;2024-02-26T05:11:10;3.65;;;2.30;;
63714;SDS011;49858;48.956;9.076;2024-02-26T05:13:39;3.35;;;2.20;;
63714;SDS011;49858;48.956;9.076;2024-02-26T05:16:09;4.35;;;2.70;;
63714;SDS011;49858;48.956;9.076;2024-02-26T05:18:37;3.80;;;2.35;;
63714;SDS011;49858;48.956;9.076;2024-02-26T05:21:05;4.68;;;2.50;;
63714;SDS011;49858;48.956;9.076;2024-02-26T05:23:33;2.65;;;2.15;;
63714;SDS011;49858;48.956;9.076;2024-02-26T05:26:01;4.18;;;2.63;;
63714;SDS011;49858;48.956;9.076;2024-02-26T05:28:29;4.03;;;2.63;;
63714;SDS011;49858;48.956;9.076;2024-02-26T05:30:59;4.53;;;2.13;;
63714;SDS011;49858;48.956;9.076;2024-02-26T05:33:27;4.75;;;2.00;;
63714;SDS011;49858;48.956;9.076;2024-02-26T05:35:55;3.47;;;2.40;;
63714;SDS011;49858;48.956;9.076;2024-02-26T05:38:30;3.20;;;2.05;;
63714;SDS011;49858;48.956;9.076;2024-02-26T05:40:58;2.92;;;2.38;;
63714;SDS011;49858;48.956;9.076;2024-02-26T05:43:26;3.72;;;2.75;;
63714;SDS011;49858;48.956;9.076;2024-02-26T05:45:56;4.13;;;2.72;;
63714;SDS011;49858;48.956;9.076;2024-02-26T05:48:25;4.07;;;2.67;;
63714;SDS011;49858;48.956;9.076;2024-02-26T05:50:53;5.07;;;2.80;;
63714;SDS011;49858;48.956;9.076;2024-02-26T05:53:21;5.15;;;3.13;;
63714;SDS011;49858;48.956;9.076;2024-02-26T05:55:49;6.85;;;2.05;;
63714;SDS011;49858;48.956;9.076;2024-02-26T05:58:17;4.55;;;2.38;;
63714;SDS011;49858;48.956;9.076;2024-02-26T06:00:45;3.13;;;2.42;;
63714;SDS011;49858;48.956;9.076;2024-02-26T06:03:13;3.10;;;2.33;;
63714;SDS011;49858;48.956;9.076;2024-02-26T06:05:43;5.10;;;2.53;;
63714;SDS011;49858;48.956;9.076;2024-02-26T06:08:11;5.95;;;2.85;;
63714;SDS011;49858;48.956;9.076;2024-02-26T06:10:39;7.65;;;3.75;;
63714;SDS011;49858;48.956;9.076;2024-02-26T06:13:07;4.55;;;3.00;;
63714;SDS011;49858;48.956;9.076;2024-02-26T06:15:35;5.03;;;3.53;;
63714;SDS011;49858;48.956;9.076;2024-02-26T06:18:03;5.95;;;3.05;;
63714;SDS011;49858;48.956;9.076;2024-02-26T06:20:32;5.10;;;3.20;;
63714;SDS011;49858;48.956;9.076;2024-02-26T06:23:01;3.30;;;2.40;;
63714;SDS011;49858;48.956;9.076;2024-02-26T06:25:29;4.28;;;3.13;;
63714;SDS011;49858;48.956;9.076;2024-02-26T06:27:57;10.70;;;3.20;;
63714;SDS011;49858;48.956;9.076;2024-02-26T06:30:24;4.90;;;3.15;;
63714;SDS011;49858;48.956;9.076;2024-02-26T06:32:52;5.38;;;3.20;;
63714;SDS011;49858;48.956;9.076;2024-02-26T06:35:20;11.13;;;3.65;;
63714;SDS011;49858;48.956;9.076;2024-02-26T06:37:48;5.57;;;3.50;;
63714;SDS011;49858;48.956;9.076;2024-02-26T06:40:20;7.25;;;3.45;;
63714;SDS011;49858;48.956;9.076;2024-02-26T06:42:48;11.65;;;4.50;;
63714;SDS011;49858;48.956;9.076;2024-02-26T06:45:16;8.85;;;4.00;;
63714;SDS011;49858;48.956;9.076;2024-02-26T06:47:45;8.20;;;4.22;;
63714;SDS011;49858;48.956;9.076;2024-02-26T06:50:14;5.35;;;3.58;;
63714;SDS011;49858;48.956;9.076;2024-02-26T06:52:42;5.68;;;4.28;;
63714;SDS011;49858;48.956;9.076;2024-02-26T06:55:11;8.00;;;3.88;;
63714;SDS011;49858;48.956;9.076;2024-02-26T06:57:41;5.57;;;3.20;;
63714;SDS011;49858;48.956;9.076;2024-02-26T07:00:09;7.75;;;3.47;;
63714;SDS011;49858;48.956;9.076;2024-02-26T07:02:41;5.05;;;3.10;;
63714;SDS011;49858;48.956;9.076;2024-02-26T07:05:09;4.95;;;3.33;;
63714;SDS011;49858;48.956;9.076;2024-02-26T07:07:37;6.03;;;3.42;;
63714;SDS011;49858;48.956;9.076;2024-02-26T07:10:05;6.78;;;4.03;;
63714;SDS011;49858;48.956;9.076;2024-02-26T07:12:35;7.25;;;4.00;;
63714;SDS011;49858;48.956;9.076;2024-02-26T07:15:06;6.05;;;3.60;;
63714;SDS011;49858;48.956;9.076;2024-02-26T07:17:35;5.47;;;3.75;;
63714;SDS011;49858;48.956;9.076;2024-02-26T07:20:03;6.18;;;4.47;;
63714;SDS011;49858;48.956;9.076;2024-02-26T07:22:36;7.05;;;4.47;;
63714;SDS011;49858;48.956;9.076;2024-02-26T07:25:04;5.55;;;4.00;;
63714;SDS011;49858;48.956;9.076;2024-02-26T07:27:35;9.75;;;5.45;;
63714;SDS011;49858;48.956;9.076;2024-02-26T07:30:03;7.05;;;4.70;;
63714;SDS011;49858;48.956;9.076;2024-02-26T07:32:35;7.80;;;4.82;;
63714;SDS011;49858;48.956;9.076;2024-02-26T07:35:03;7.75;;;4.45;;
63714;SDS011;49858;48.956;9.076;2024-02-26T07:37:33;9.82;;;5.55;;
63714;SDS011;49858;48.956;9.076;2024-02-26T07:40:01;9.05;;;5.05;;
63714;SDS011;49858;48.956;9.076;2024-02-26T07:42:31;8.52;;;5.78;;
63714;SDS011;49858;48.956;9.076;2024-02-26T07:44:59;10.32;;;5.63;;
63714;SDS011;49858;48.956;9.076;2024-02-26T07:47:27;7.50;;;5.13;;
63714;SDS011;49858;48.956;9.076;2024-02-26T07:49:57;11.10;;;5.18;;
63714;SDS011;49858;48.956;9.076;2024-02-26T07:52:25;7.57;;;4.90;;
63714;SDS011;49858;48.956;9.076;2024-02-26T07:54:53;7.13;;;4.68;;
63714;SDS011;49858;48.956;9.076;2024-02-26T07:57:21;8.30;;;5.00;;
63714;SDS011;49858;48.956;9.076;2024-02-26T07:59:49;8.60;;;5.70;;
63714;SDS011;49858;48.956;9.076;2024-02-26T08:02:17;8.30;;;4.78;;
63714;SDS011;49858;48.956;9.076;2024-02-26T08:04:45;6.55;;;4.45;;
63714;SDS011;49858;48.956;9.076;2024-02-26T08:07:14;9.57;;;6.00;;
63714;SDS011;49858;48.956;9.076;2024-02-26T08:09:43;9.38;;;4.93;;
63714;SDS011;49858;48.956;9.076;2024-02-26T08:12:12;8.63;;;5.25;;
63714;SDS011;49858;48.956;9.076;2024-02-26T08:14:40;8.20;;;5.53;;
63714;SDS011;49858;48.956;9.076;2024-02-26T08:17:09;9.27;;;5.47;;
63714;SDS011;49858;48.956;9.076;2024-02-26T08:19:37;10.10;;;4.85;;
63714;SDS011;49858;48.956;9.076;2024-02-26T08:22:05;8.50;;;4.82;;
63714;SDS011;49858;48.956;9.076;2024-02-26T08:24:34;8.25;;;5.35;;
63714;SDS011;49858;48.956;9.076;2024-02-26T08:27:03;8.13;;;4.65;;
63714;SDS011;49858;48.956;9.076;2024-02-26T08:29:31;9.32;;;5.40;;
63714;SDS011;49858;48.956;9.076;2024-02-26T08:31:58;9.57;;;5.55;;
63714;SDS011;49858;48.956;9.076;2024-02-26T08:34:27;10.40;;;5.40;;
63714;SDS011;49858;48.956;9.076;2024-02-26T08:36:55;9.85;;;5.07;;
63714;SDS011;49858;48.956;9.076;2024-02-26T08:39:24;6.80;;;4.70;;
63714;SDS011;49858;48.956;9.076;2024-02-26T08:41:54;14.35;;;6.20;;
63714;SDS011;49858;48.956;9.076;2024-02-26T08:44:22;11.40;;;5.70;;
63714;SDS011;49858;48.956;9.076;2024-02-26T08:46:49;8.90;;;5.28;;
63714;SDS011;49858;48.956;9.076;2024-02-26T08:49:18;14.45;;;6.18;;
63714;SDS011;49858;48.956;9.076;2024-02-26T08:51:46;7.95;;;5.15;;
63714;SDS011;49858;48.956;9.076;2024-02-26T08:54:14;10.48;;;5.85;;
63714;SDS011;49858;48.956;9.076;2024-02-26T08:56:42;8.88;;;5.10;;
63714;SDS011;49858;48.956;9.076;2024-02-26T08:59:12;8.23;;;4.57;;
63714;SDS011;49858;48.956;9.076;2024-02-26T09:01:42;10.32;;;5.55;;
63714;SDS011;49858;48.956;9.076;2024-02-26T09:04:09;10.23;;;5.93;;
63714;SDS011;49858;48.956;9.076;2024-02-26T09:06:37;8.55;;;5.53;;
63714;SDS011;49858;48.956;9.076;2024-02-26T09:09:05;8.45;;;5.13;;
63714;SDS011;49858;48.956;9.076;2024-02-26T09:11:33;9.13;;;5.50;;
63714;SDS011;49858;48.956;9.076;2024-02-26T09:14:01;9.90;;;6.60;;
63714;SDS011;49858;48.956;9.076;2024-02-26T09:16:31;12.05;;;6.57;;
63714;SDS011;49858;48.956;9.076;2024-02-26T09:18:59;13.18;;;6.15;;
63714;SDS011;49858;48.956;9.076;2024-02-26T09:21:27;13.95;;;8.93;;
63714;SDS011;49858;48.956;9.076;2024-02-26T09:23:56;11.18;;;7.20;;
63714;SDS011;49858;48.956;9.076;2024-02-26T09:26:24;9.43;;;5.95;;
63714;SDS011;49858;48.956;9.076;2024-02-26T09:28:52;9.60;;;6.35;;
63714;SDS011;49858;48.956;9.076;2024-02-26T09:31:20;10.73;;;6.20;;
63714;SDS011;49858;48.956;9.076;2024-02-26T09:33:49;8.75;;;6.13;;
63714;SDS011;49858;48.956;9.076;2024-02-26T09:36:18;12.57;;;6.47;;
63714;SDS011;49858;48.956;9.076;2024-02-26T09:38:48;11.82;;;6.43;;
63714;SDS011;49858;48.956;9.076;2024-02-26T09:41:27;11.75;;;7.43;;
63714;SDS011;49858;48.956;9.076;2024-02-26T09:43:57;11.15;;;6.60;;
63714;SDS011;49858;48.956;9.076;2024-02-26T09:46:26;11.18;;;6.78;;
63714;SDS011;49858;48.956;9.076;2024-02-26T09:48:56;11.10;;;6.45;;
63714;SDS011;49858;48.956;9.076;2024-02-26T09:51:25;11.98;;;5.72;;
63714;SDS011;49858;48.956;9.076;2024-02-26T09:53:53;10.23;;;6.00;;
63714;SDS011;49858;48.956;9.076;2024-02-26T09:56:23;9.32;;;5.20;;
63714;SDS011;49858;48.956;9.076;2024-02-26T09:58:52;8.10;;;5.38;;
63714;SDS011;49858;48.956;9.076;2024-02-26T10:01:21;12.07;;;4.57;;
63714;SDS011;49858;48.956;9.076;2024-02-26T10:03:51;11.32;;;4.47;;
63714;SDS011;49858;48.956;9.076;2024-02-26T10:06:23;8.13;;;5.18;;
63714;SDS011;49858;48.956;9.076;2024-02-26T10:08:54;6.00;;;4.03;;
63714;SDS011;49858;48.956;9.076;2024-02-26T10:11:25;12.30;;;5.03;;
63714;SDS011;49858;48.956;9.076;2024-02-26T10:13:54;8.77;;;5.07;;
63714;SDS011;49858;48.956;9.076;2024-02-26T10:16:22;9.48;;;5.85;;
63714;SDS011;49858;48.956;9.076;2024-02-26T10:18:50;8.45;;;4.80;;
63714;SDS011;49858;48.956;9.076;2024-02-26T10:21:27;9.63;;;5.28;;
63714;SDS011;49858;48.956;9.076;2024-02-26T10:23:54;9.38;;;6.07;;
63714;SDS011;49858;48.956;9.076;2024-02-26T10:26:22;9.93;;;6.97;;
63714;SDS011;49858;48.956;9.076;2024-02-26T10:28:50;9.02;;;5.63;;
63714;SDS011;49858;48.956;9.076;2024-02-26T10:31:21;10.80;;;5.68;;
63714;SDS011;49858;48.956;9.076;2024-02-26T10:33:49;13.27;;;5.90;;
63714;SDS011;49858;48.956;9.076;2024-02-26T10:36:17;6.15;;;4.10;;
63714;SDS011;49858;48.956;9.076;2024-02-26T10:38:46;5.03;;;3.33;;
63714;SDS011;49858;48.956;9.076;2024-02-26T10:41:16;5.13;;;2.92;;
63714;SDS011;49858;48.956;9.076;2024-02-26T10:43:44;4.13;;;3.40;;
63714;SDS011;49858;48.956;9.076;2024-02-26T10:46:12;4.85;;;2.95;;
63714;SDS011;49858;48.956;9.076;2024-02-26T10:48:40;7.75;;;3.95;;
63714;SDS011;49858;48.956;9.076;2024-02-26T10:51:12;7.82;;;4.05;;
63714;SDS011;49858;48.956;9.076;2024-02-26T10:53:41;10.43;;;3.78;;
63714;SDS011;49858;48.956;9.076;2024-02-26T10:56:14;6.43;;;3.22;;
63714;SDS011;49858;48.956;9.076;2024-02-26T10:58:45;4.90;;;3.35;;
63714;SDS011;49858;48.956;9.076;2024-02-26T11:01:14;5.93;;;3.25;;
63714;SDS011;49858;48.956;9.076;2024-02-26T11:03:42;4.15;;;2.78;;
63714;SDS011;49858;48.956;9.076;2024-02-26T11:06:11;4.18;;;2.65;;
63714;SDS011;49858;48.956;9.076;2024-02-26T11:08:40;3.75;;;2.53;;
63714;SDS011;49858;48.956;9.076;2024-02-26T11:11:08;3.80;;;2.50;;
63714;SDS011;49858;48.956;9.076;2024-02-26T11:13:41;5.95;;;2.88;;
63714;SDS011;49858;48.956;9.076;2024-02-26T11:16:14;5.03;;;2.70;;
63714;SDS011;49858;48.956;9.076;2024-02-26T11:18:45;3.70;;;2.63;;
63714;SDS011;49858;48.956;9.076;2024-02-26T11:21:15;3.58;;;2.50;;
63714;SDS011;49858;48.956;9.076;2024-02-26T11:23:44;4.10;;;2.05;;
63714;SDS011;49858;48.956;9.076;2024-02-26T11:26:13;3.58;;;2.33;;
63714;SDS011;49858;48.956;9.076;2024-02-26T11:28:45;2.95;;;2.13;;
63714;SDS011;49858;48.956;9.076;2024-02-26T11:31:14;2.90;;;2.00;;
63714;SDS011;49858;48.956;9.076;2024-02-26T11:33:42;2.38;;;1.70;;
63714;SDS011;49858;48.956;9.076;2024-02-26T11:36:11;3.00;;;1.70;;
63714;SDS011;49858;48.956;9.076;2024-02-26T11:38:40;3.42;;;2.25;;
63714;SDS011;49858;48.956;9.076;2024-02-26T11:41:13;3.03;;;1.92;;
63714;SDS011;49858;48.956;9.076;2024-02-26T11:43:50;2.85;;;1.98;;
63714;SDS011;49858;48.956;9.076;2024-02-26T11:46:25;1.92;;;1.40;;
63714;SDS011;49858;48.956;9.076;2024-02-26T11:48:56;3.60;;;2.08;;
63714;SDS011;49858;48.956;9.076;2024-02-26T11:51:26;2.05;;;1.58;;
63714;SDS011;49858;48.956;9.076;2024-02-26T11:53:54;2.88;;;1.80;;
63714;SDS011;49858;48.956;9.076;2024-02-26T11:56:25;3.03;;;1.90;;
63714;SDS011;49858;48.956;9.076;2024-02-26T11:59:03;4.27;;;2.10;;
63714;SDS011;49858;48.956;9.076;2024-02-26T12:01:43;2.60;;;1.80;;
63714;SDS011;49858;48.956;9.076;2024-02-26T12:04:17;3.47;;;2.10;;
63714;SDS011;49858;48.956;9.076;2024-02-26T12:06:47;4.45;;;2.60;;
63714;SDS011;49858;48.956;9.076;2024-02-26T12:09:30;4.18;;;1.98;;
63714;SDS011;49858;48.956;9.076;2024-02-26T12:12:00;3.08;;;2.25;;
63714;SDS011;49858;48.956;9.076;2024-02-26T12:14:32;2.78;;;2.00;;
63714;SDS011;49858;48.956;9.076;2024-02-26T12:17:00;4.60;;;2.65;;
63714;SDS011;49858;48.956;9.076;2024-02-26T12:19:32;2.70;;;2.20;;
63714;SDS011;49858;48.956;9.076;2024-02-26T12:22:01;2.55;;;2.03;;
63714;SDS011;49858;48.956;9.076;2024-02-26T12:24:29;3.13;;;1.92;;
63714;SDS011;49858;48.956;9.076;2024-02-26T12:26:57;4.50;;;2.00;;
63714;SDS011;49858;48.956;9.076;2024-02-26T12:29:25;3.88;;;1.70;;
63714;SDS011;49858;48.956;9.076;2024-02-26T12:31:57;3.00;;;1.80;;
63714;SDS011;49858;48.956;9.076;2024-02-26T12:34:25;3.20;;;2.00;;
63714;SDS011;49858;48.956;9.076;2024-02-26T12:36:56;3.05;;;2.17;;
63714;SDS011;49858;48.956;9.076;2024-02-26T12:39:25;2.75;;;1.73;;
63714;SDS011;49858;48.956;9.076;2024-02-26T12:41:53;3.00;;;1.77;;
63714;SDS011;49858;48.956;9.076;2024-02-26T12:44:24;5.10;;;2.22;;
63714;SDS011;49858;48.956;9.076;2024-02-26T12:47:00;3.40;;;1.73;;
63714;SDS011;49858;48.956;9.076;2024-02-26T12:49:32;2.72;;;2.03;;
63714;SDS011;49858;48.956;9.076;2024-02-26T12:52:04;2.00;;;1.52;;
63714;SDS011;49858;48.956;9.076;2024-02-26T12:54:33;4.15;;;1.88;;
63714;SDS011;49858;48.956;9.076;2024-02-26T12:57:07;2.35;;;1.77;;
63714;SDS011;49858;48.956;9.076;2024-02-26T12:59:36;3.70;;;1.70;;
63714;SDS011;49858;48.956;9.076;2024-02-26T13:02:09;2.20;;;1.50;;
63714;SDS011;49858;48.956;9.076;2024-02-26T13:04:37;3.75;;;1.85;;
63714;SDS011;49858;48.956;9.076;2024-02-26T13:07:06;3.25;;;1.90;;
63714;SDS011;49858;48.956;9.076;2024-02-26T13:09:34;2.60;;;1.60;;
63714;SDS011;49858;48.956;9.076;2024-02-26T13:12:03;2.40;;;1.42;;
63714;SDS011;49858;48.956;9.076;2024-02-26T13:14:32;3.75;;;1.20;;
63714;SDS011;49858;48.956;9.076;2024-02-26T13:17:00;2.10;;;1.40;;
63714;SDS011;49858;48.956;9.076;2024-02-26T13:19:30;1.73;;;1.40;;
63714;SDS011;49858;48.956;9.076;2024-02-26T13:22:03;2.10;;;1.40;;
63714;SDS011;49858;48.956;9.076;2024-02-26T13:24:33;2.17;;;1.33;;
63714;SDS011;49858;48.956;9.076;2024-02-26T13:27:03;1.88;;;1.13;;
63714;SDS011;49858;48.956;9.076;2024-02-26T13:29:33;2.85;;;1.35;;
63714;SDS011;49858;48.956;9.076;2024-02-26T13:32:01;1.95;;;1.25;;
63714;SDS011;49858;48.956;9.076;2024-02-26T13:34:29;1.90;;;1.30;;
63714;SDS011;49858;48.956;9.076;2024-02-26T13:37:00;2.45;;;1.20;;
63714;SDS011;49858;48.956;9.076;2024-02-26T13:39:27;2.70;;;1.20;;
63714;SDS011;49858;48.956;9.076;2024-02-26T13:41:58;1.45;;;0.88;;
63714;SDS011;49858;48.956;9.076;2024-02-26T13:44:26;1.67;;;0.90;;
63714;SDS011;49858;48.956;9.076;2024-02-26T13:46:54;1.00;;;0.80;;
63714;SDS011;49858;48.956;9.076;2024-02-26T13:49:22;2.40;;;1.10;;
63714;SDS011;49858;48.956;9.076;2024-02-26T13:51:52;4.57;;;1.00;;
63714;SDS011;49858;48.956;9.076;2024-02-26T13:54:19;1.00;;;0.80;;
63714;SDS011;49858;48.956;9.076;2024-02-26T13:56:47;1.95;;;1.25;;
63714;SDS011;49858;48.956;9.076;2024-02-26T13:59:15;1.10;;;0.80;;
63714;SDS011;49858;48.956;9.076;2024-02-26T14:01:45;1.35;;;0.98;;
63714;SDS011;49858;48.956;9.076;2024-02-26T14:04:13;1.20;;;0.70;;
63714;SDS011;49858;48.956;9.076;2024-02-26T14:06:43;1.42;;;0.75;;
63714;SDS011;49858;48.956;9.076;2024-02-26T14:09:12;1.00;;;0.50;;
63714;SDS011;49858;48.956;9.076;2024-02-26T14:14:13;0.70;;;0.50;;
63714;SDS011;49858;48.956;9.076;2024-02-26T14:16:41;1.70;;;0.50;;
63714;SDS011;49858;48.956;9.076;2024-02-26T14:19:09;0.68;;;0.60;;
63714;SDS011;49858;48.956;9.076;2024-02-26T14:21:41;0.98;;;0.50;;
63714;SDS011;49858;48.956;9.076;2024-02-26T14:24:09;0.80;;;0.57;;
63714;SDS011;49858;48.956;9.076;2024-02-26T14:26:39;1.95;;;0.47;;
63714;SDS011;49858;48.956;9.076;2024-02-26T14:29:07;0.85;;;0.60;;
63714;SDS011;49858;48.956;9.076;2024-02-26T14:31:35;0.40;;;0.40;;
63714;SDS011;49858;48.956;9.076;2024-02-26T14:34:03;0.50;;;0.40;;
63714;SDS011;49858;48.956;9.076;2024-02-26T14:36:33;0.70;;;0.35;;
63714;SDS011;49858;48.956;9.076;2024-02-26T14:39:01;0.93;;;0.50;;
63714;SDS011;49858;48.956;9.076;2024-02-26T14:41:30;0.93;;;0.50;;
63714;SDS011;49858;48.956;9.076;2024-02-26T14:44:00;0.60;;;0.40;;
63714;SDS011;49858;48.956;9.076;2024-02-26T14:46:28;0.30;;;0.30;;
63714;SDS011;49858;48.956;9.076;2024-02-26T14:48:56;0.80;;;0.40;;
63714;SDS011;49858;48.956;9.076;2024-02-26T14:51:24;1.05;;;0.40;;
63714;SDS011;49858;48.956;9.076;2024-02-26T14:53:53;0.40;;;0.30;;
63714;SDS011;49858;48.956;9.076;2024-02-26T14:56:21;0.35;;;0.30;;
63714;SDS011;49858;48.956;9.076;2024-02-26T14:58:49;0.52;;;0.30;;